Terminal Aerodrome Forecast
Issued by NWS

Home | Current Version | Previous Version | Text Only | Print | Product List | Glossary On
Versions: 1 2 3 4 5 6 7 8 9 10 11 12
000
FTUS45 KREV 231741
TAFTRK
TAF
KTRK 231741Z 2318/2418 23014G25KT P6SM SCT110 SCT180
     FM240200 23009KT P6SM SCT110 BKN180
     FM240700 20008KT P6SM SCT035 BKN070
     FM241200 20012G20KT P6SM VCSH OVC050=

USA.gov is the U.S. government's official web portal to all federal, state and local government web resources and services.